createdAt,value
2022-10-23T00:00:01.344Z,1917
2022-10-23T00:15:02.184Z,1862
2022-10-23T00:30:04.347Z,1817
2022-10-23T00:45:01.237Z,1772
2022-10-23T01:00:04.612Z,1733
2022-10-23T01:15:01.534Z,1698
2022-10-23T01:30:05.403Z,1672
2022-10-23T01:45:05.073Z,1643
2022-10-23T02:00:03.279Z,1611
2022-10-23T02:15:03.347Z,1582
2022-10-23T02:30:03.329Z,1551
2022-10-23T02:45:04.404Z,1512
2022-10-23T03:00:04.313Z,1472
2022-10-23T03:15:03.188Z,1432
2022-10-23T03:30:05.204Z,1395
2022-10-23T03:45:01.507Z,1356
2022-10-23T04:00:02.265Z,1327
2022-10-23T04:15:05.378Z,1305
2022-10-23T04:30:05.094Z,1291
2022-10-23T04:45:03.411Z,1280
2022-10-23T05:00:04.488Z,1278
2022-10-23T05:15:01.375Z,1277
2022-10-23T05:30:02.210Z,1277
2022-10-23T05:45:03.354Z,1294
2022-10-23T06:00:01.422Z,1246
2022-10-23T06:15:05.170Z,1175
2022-10-23T06:30:04.551Z,1073
2022-10-23T06:45:01.353Z,987
2022-10-23T07:00:02.215Z,892
2022-10-23T07:15:04.347Z,876
2022-10-23T07:30:01.209Z,899
2022-10-23T07:45:05.606Z,970
2022-10-23T08:00:01.344Z,1022
2022-10-23T08:15:03.175Z,1036
2022-10-23T08:30:04.190Z,1015
2022-10-23T08:45:01.103Z,989
2022-10-23T09:00:02.434Z,935
2022-10-23T09:15:05.126Z,881
2022-10-23T09:30:03.438Z,861
2022-10-23T09:45:01.548Z,865
2022-10-23T10:00:01.306Z,855
2022-10-23T10:15:04.652Z,852
2022-10-23T10:30:01.553Z,850
2022-10-23T10:45:04.332Z,877
2022-10-23T11:00:04.238Z,913
2022-10-23T11:15:01.139Z,955
2022-10-23T11:30:02.478Z,990
2022-10-23T11:45:01.592Z,1017
2022-10-23T12:00:05.338Z,1024
2022-10-23T12:15:01.609Z,1029
2022-10-23T12:30:04.413Z,1034
2022-10-23T12:45:04.274Z,1058
2022-10-23T13:00:03.181Z,1099
2022-10-23T13:15:01.227Z,1137
2022-10-23T13:30:04.587Z,1175
2022-10-23T13:45:04.501Z,1221
2022-10-23T14:00:04.366Z,1289
2022-10-23T14:30:04.145Z,1449
2022-10-23T14:45:03.603Z,1523
2022-10-23T15:00:01.087Z,1584
2022-10-23T15:15:02.442Z,1631
2022-10-23T15:30:01.712Z,1667
2022-10-23T15:45:04.446Z,1676
2022-10-23T16:00:04.275Z,1677
2022-10-23T16:15:04.156Z,1690
2022-10-23T16:30:03.578Z,1694
2022-10-23T16:45:01.649Z,1695
2022-10-23T17:00:03.371Z,1724
2022-10-23T17:15:04.441Z,1753
2022-10-23T17:30:05.367Z,1775
2022-10-23T17:45:03.649Z,1791
2022-10-23T18:00:03.080Z,1795
2022-10-23T18:15:05.107Z,1805
2022-10-23T18:30:02.393Z,1825
2022-10-23T18:45:04.618Z,1837
2022-10-23T19:00:01.496Z,1851
2022-10-23T19:15:05.253Z,1873
2022-10-23T19:30:01.563Z,1878
2022-10-23T20:00:05.661Z,1880
2022-10-23T20:15:01.386Z,1875
2022-10-23T20:30:04.603Z,1864
2022-10-23T20:45:01.368Z,1857
2022-10-23T21:00:02.169Z,1841
2022-10-23T21:15:02.324Z,1825
2022-10-23T21:30:01.530Z,1807
2022-10-23T21:45:04.325Z,1792
2022-10-23T22:00:04.226Z,1774
2022-10-23T22:15:02.604Z,1759
2022-10-23T22:30:02.228Z,1744
2022-10-23T22:45:05.375Z,1731
2022-10-23T23:00:05.116Z,1719
2022-10-23T23:15:05.489Z,1707
2022-10-23T23:45:04.533Z,1686
